Weather reports worldwide

Advertisment
Madronera, Spain (8263): temperature & dewpoint: 12.01.2020 13:00:00 - 18.01.2020 13:00:00 (CET)Madronera, Spain (8263): wind speed & gusts: 12.01.2020 13:00:00 - 18.01.2020 13:00:00 (CET)Madronera, Spain (8263): wind direction: 12.01.2020 13:00:00 - 18.01.2020 13:00:00 (CET)Madronera, Spain (8263): precipitation: 12.01.2020 13:00:00 - 18.01.2020 13:00:00 (CET)
Date & Time tt [°C] td [°C] ff [km/h] ff [kn] fx [km/h] fx [kn] dd rr [mm]
18.01.2020 13:00:00 9,7 7,7 16 8 33 18 SSE -
18.01.2020 12:00:00 9,2 7,1 20 11 37 20 SSE 0,4
18.01.2020 11:00:00 8,9 6,8 20 11 37 20 SE 1,2
18.01.2020 10:00:00 8,5 6,4 14 8 24 13 ESE 1,1
18.01.2020 09:00:00 8,7 6,5 13 7 20 11 ESE 1,8
18.01.2020 08:00:00 9,0 6,2 7 4 16 9 SE 0,8
18.01.2020 07:00:00 9,0 6,1 10 6 19 11 SE -
18.01.2020 06:00:00 8,9 6,2 10 6 20 11 SE 0,6
18.01.2020 05:00:00 8,5 5,8 12 6 20 11 SE 0,1
18.01.2020 04:00:00 8,5 5,5 13 7 21 11 SSE 0,0
18.01.2020 03:00:00 8,8 5,0 5 3 12 7 S 0,0
18.01.2020 02:00:00 8,9 5,0 6 3 9 5 SE 0,0
18.01.2020 01:00:00 9,2 5,3 4 2 7 4 SSE -
18.01.2020 00:00:00 9,0 5,1 4 2 8 4 SSW 0,0
17.01.2020 23:00:00 8,7 4,1 3 2 7 4 SE 0,0
17.01.2020 22:00:00 9,3 3,8 4 2 8 4 S 0,0
17.01.2020 21:00:00 9,7 2,3 4 2 10 6 S 0,0
17.01.2020 20:00:00 9,8 2,1 4 2 6 4 SSW 0,0
17.01.2020 19:00:00 9,6 1,5 4 2 6 3 SSW -
17.01.2020 18:00:00 11,0 1,3 3 2 13 7 SW 0,0
17.01.2020 17:00:00 13,4 3,4 1 0 14 8 NW 0,0
17.01.2020 16:00:00 12,6 4,3 4 2 20 11 WNW 0,1
17.01.2020 15:00:00 12,3 3,9 6 3 24 13 WSW 0,0
17.01.2020 14:00:00 11,0 5,5 6 3 19 11 SW 0,0
17.01.2020 13:00:00 11,1 6,8 8 4 21 12 WSW -
17.01.2020 12:00:00 10,0 7,7 7 4 17 9 SW 0,1
17.01.2020 11:00:00 9,2 7,1 7 4 14 7 S 0,0
17.01.2020 10:00:00 8,5 6,4 6 3 15 8 SSW 0,0
17.01.2020 09:00:00 8,5 6,4 6 3 14 8 S 0,0
17.01.2020 08:00:00 8,5 6,2 6 4 27 14 SW 0,0
17.01.2020 07:00:00 8,4 6,2 7 4 13 7 SSW -
17.01.2020 06:00:00 9,0 6,8 4 2 13 7 SW 0,0
17.01.2020 05:00:00 9,0 6,5 6 3 18 10 SW 0,0
17.01.2020 04:00:00 9,5 6,4 5 3 15 8 S 0,0
17.01.2020 03:00:00 9,3 5,1 7 4 16 9 SSE 0,0
17.01.2020 02:00:00 9,5 4,3 6 4 22 12 S 0,0
17.01.2020 01:00:00 9,3 2,7 8 5 21 11 SSE -
17.01.2020 00:00:00 10,0 0,0 8 4 23 12 S 0,0
16.01.2020 23:00:00 10,9 -1,4 13 7 25 14 S 0,0
16.01.2020 22:00:00 10,5 -1,4 11 6 23 12 SSE 0,0
16.01.2020 21:00:00 11,2 -1,2 13 7 22 12 SSE 0,0
16.01.2020 20:00:00 10,4 -1,7 5 3 13 7 S 0,0
16.01.2020 19:00:00 11,4 -0,7 5 3 13 7 SSW -
16.01.2020 18:00:00 12,7 0,2 5 3 18 10 S 0,0
16.01.2020 17:00:00 14,5 1,5 11 6 31 17 SSE 0,0
16.01.2020 16:00:00 14,7 1,5 13 7 27 14 S 0,0
16.01.2020 15:00:00 14,3 1,9 13 7 31 17 SSE 0,0
16.01.2020 14:00:00 13,8 3,0 16 9 31 17 SSE 0,0
16.01.2020 13:00:00 13,1 3,8 13 7 29 16 SSE -
16.01.2020 12:00:00 12,0 5,5 19 10 32 17 SE 0,0
16.01.2020 11:00:00 11,1 7,0 17 9 33 18 SE 0,0
16.01.2020 10:00:00 10,0 6,8 16 9 24 13 SE 0,0
16.01.2020 09:00:00 8,9 6,4 14 7 22 12 SE 0,1
16.01.2020 08:00:00 9,5 7,0 14 8 23 12 SE 0,0
16.01.2020 07:00:00 9,2 6,7 11 6 19 11 SE -
16.01.2020 06:00:00 9,6 7,0 12 7 18 10 SE 0,0
16.01.2020 05:00:00 10,0 7,4 10 6 26 14 SE 0,0
16.01.2020 04:00:00 9,7 7,0 15 8 22 12 SE 0,0
16.01.2020 03:00:00 10,0 7,1 13 7 22 12 SE 0,0
16.01.2020 02:00:00 10,5 7,7 13 7 26 14 SE 0,0
16.01.2020 01:00:00 10,4 7,7 15 8 23 12 SE -
16.01.2020 00:00:00 10,3 7,4 13 7 21 12 SSE 0,0
15.01.2020 23:00:00 10,3 7,4 15 8 23 12 SE 0,0
15.01.2020 22:00:00 10,1 7,0 14 8 22 12 SE 0,0
15.01.2020 21:00:00 10,4 6,7 13 7 25 14 SE 0,0
15.01.2020 20:00:00 10,6 6,5 16 9 25 13 SE 0,1
15.01.2020 19:00:00 10,9 6,2 14 8 24 13 SE -
15.01.2020 18:00:00 11,5 6,4 14 8 25 14 SE 0,0
15.01.2020 17:00:00 12,0 6,5 16 9 26 14 SE 0,0
15.01.2020 16:00:00 11,9 6,2 16 9 27 15 SE 0,0
15.01.2020 15:00:00 10,6 5,1 18 10 32 18 SSE 0,0
15.01.2020 14:00:00 11,2 5,3 21 12 37 20 SSE 0,0
15.01.2020 13:00:00 - - - - - - - -
15.01.2020 12:00:00 - - - - - - - -
15.01.2020 11:00:00 9,1 3,8 23 13 39 21 SSE 0,0
15.01.2020 10:00:00 8,2 2,9 22 12 39 21 SSE 0,0
15.01.2020 09:00:00 7,9 2,7 22 12 36 19 SSE 0,0
15.01.2020 08:00:00 8,1 3,0 19 10 35 19 SE 0,0
15.01.2020 07:00:00 8,1 3,2 20 11 32 17 SSE -
15.01.2020 06:00:00 7,9 3,4 18 10 30 16 SSE 0,0
15.01.2020 05:00:00 7,4 3,2 16 9 26 14 SE 0,0
15.01.2020 04:00:00 6,8 2,9 16 9 29 16 SE 0,0
15.01.2020 03:00:00 6,6 2,5 12 7 24 13 SSE 0,0
15.01.2020 02:00:00 7,4 3,0 14 8 28 15 SSE 0,0
15.01.2020 01:00:00 7,4 3,0 16 8 32 18 SE -
15.01.2020 00:00:00 8,3 3,4 21 12 34 18 SE 0,0
14.01.2020 23:00:00 8,8 3,6 18 10 30 16 SE 0,0
14.01.2020 22:00:00 8,8 3,6 15 8 30 16 SE 0,0
14.01.2020 21:00:00 8,7 3,8 19 10 30 16 SE 0,0
14.01.2020 20:00:00 8,5 3,6 15 8 23 12 SE 0,0
14.01.2020 19:00:00 8,7 2,5 11 6 23 13 SSE -
14.01.2020 18:00:00 9,0 1,7 11 6 24 13 SSE 0,0
14.01.2020 17:00:00 9,0 0,9 14 8 30 16 SSE 0,0
14.01.2020 16:00:00 9,6 0,4 18 10 26 14 SE 0,0
14.01.2020 15:00:00 10,6 1,5 18 10 28 15 SE 0,0
14.01.2020 14:00:00 9,6 1,1 14 8 29 16 SSE 0,0
14.01.2020 13:00:00 8,7 1,3 14 8 29 15 SSE -
14.01.2020 12:00:00 7,9 1,7 14 8 25 14 SSE 0,0
14.01.2020 11:00:00 7,4 2,1 13 7 22 12 SE 0,0
14.01.2020 10:00:00 4,7 0,6 9 5 15 8 S 0,0
14.01.2020 09:00:00 4,0 0,4 6 3 13 7 S 0,0
14.01.2020 08:00:00 3,3 -0,3 6 3 12 7 ESE 0,0
14.01.2020 07:00:00 2,8 -0,7 4 2 11 6 E -
14.01.2020 06:00:00 4,0 -0,3 6 3 8 4 SE 0,0
14.01.2020 05:00:00 4,5 0,0 5 3 7 4 S 0,0
14.01.2020 04:00:00 4,4 -0,5 4 2 7 4 S 0,0
14.01.2020 03:00:00 4,7 -0,3 5 3 8 4 S 0,0
14.01.2020 02:00:00 4,7 -0,5 4 2 8 4 SSE 0,0
14.01.2020 01:00:00 5,3 -0,3 6 3 8 4 S -
14.01.2020 00:00:00 5,3 -0,3 4 2 7 4 SSW 0,0
13.01.2020 23:00:00 4,4 -1,2 3 1 6 3 SSW 0,0
13.01.2020 22:00:00 5,6 -0,7 3 1 7 4 S 0,0
13.01.2020 21:00:00 5,7 -0,5 3 2 6 3 S 0,0
13.01.2020 20:00:00 6,0 -0,7 3 2 10 5 SSE 0,0
13.01.2020 19:00:00 6,5 -0,7 4 2 12 7 SE -
13.01.2020 18:00:00 8,6 -1,0 6 3 16 8 S 0,0
13.01.2020 17:00:00 11,0 -1,4 8 4 19 10 SSW 0,0
13.01.2020 16:00:00 11,1 -0,5 8 4 16 9 SSW 0,0
13.01.2020 15:00:00 11,1 0,0 4 2 17 9 SSW 0,0
13.01.2020 14:00:00 10,5 0,2 6 4 16 8 SSE 0,0
13.01.2020 13:00:00 8,9 0,0 8 4 17 9 SSE -
13.01.2020 12:00:00 8,3 1,3 7 4 17 9 SSE 0,0
13.01.2020 11:00:00 6,3 0,4 11 6 17 9 SSE 0,0
13.01.2020 10:00:00 4,9 -0,5 6 3 12 7 SSE 0,0
13.01.2020 09:00:00 3,7 -1,4 6 4 14 7 SSE 0,0
13.01.2020 08:00:00 4,0 -2,0 9 5 13 7 SSE 0,0
13.01.2020 07:00:00 4,6 -2,2 5 3 9 5 SSE -
13.01.2020 06:00:00 4,7 -2,7 7 4 10 6 SE 0,0
13.01.2020 05:00:00 4,5 -2,7 3 1 4 2 SE 0,0
13.01.2020 04:00:00 5,1 -2,7 4 2 7 4 SE 0,0
13.01.2020 03:00:00 5,3 -2,7 5 3 7 4 SSE 0,0
13.01.2020 02:00:00 5,5 -3,3 6 4 8 4 SSE 0,0
13.01.2020 01:00:00 5,5 -3,3 5 3 6 3 SE -
13.01.2020 00:00:00 5,5 -3,0 3 2 4 2 SE 0,0
12.01.2020 23:00:00 5,1 -3,3 2 1 4 2 ESE 0,0
12.01.2020 22:00:00 5,2 -3,0 0 0 3 1 N 0,0
12.01.2020 21:00:00 5,5 -2,7 0 0 0 0 N 0,0
12.01.2020 20:00:00 6,0 -2,7 0 0 0 0 N 0,0
12.01.2020 19:00:00 7,4 -2,5 0 0 4 2 N -
12.01.2020 18:00:00 10,1 -2,2 1 1 7 4 WNW 0,0
12.01.2020 17:00:00 12,2 -2,2 1 1 7 4 WNW 0,0
12.01.2020 16:00:00 11,5 -1,7 5 3 9 5 WNW 0,0
12.01.2020 15:00:00 10,8 -1,7 4 2 16 9 W 0,0
12.01.2020 14:00:00 10,7 0,2 5 3 13 7 W 0,0
12.01.2020 13:00:00 10,7 -0,5 5 3 11 6 W -

tt = temperature
td = dewpoint
ff = wind speed
fx = gusts
dd = wind direction
rr = precipitation

Next stations